^^
WoodinvilleWX Historical Data
 
Daily Summary for December 18, 2018 Units:  English    Metric   Both
Daily Weekly Monthly Yearly Custom
  Current: High: Low: Average:
Temperature: 44.4 °F 50.1 °F 44.1 °F 47.2 °F
Dew Point: 42.79 °F 47.18 °F 42.59 °F 45.4 °F
Humidity: 94% 95% 88% 93%
Wind Speed: 0mph 5mph 0mph 0.2mph
Wind Gust: 0mph 12mph - -
WindCalm - - SSE
Pressure: 29.99 in 29.99 in 29.57 in -
Precipitation: 0.64 in      
Historical Graphs
 
 
Tabular Data for December 18, 2018
Time Temperature Dew Point Pressure Wind Wind Speed Wind Gust Humidity Rainfall Rate (Hourly)
00:00 45.4 °F 44.06 °F 29.67 in Calm     95% 0 in
00:05 45.3 °F 43.96 °F 29.67 in Calm     95% 0 in
00:10 45.3 °F 43.96 °F 29.66 in Calm     95% 0 in
00:15 45.2 °F 43.86 °F 29.66 in Calm     95% 0 in
00:20 45.2 °F 43.86 °F 29.65 in Calm     95% 0 in
00:25 45.2 °F 43.86 °F 29.65 in Calm   2 mph 95% 0 in
00:30 45.3 °F 43.68 °F 29.65 in ESE 1 mph 4 mph 94% 0 in
00:35 45.5 °F 44.15 °F 29.65 in Calm   6 mph 95% 0 in
00:40 45.8 °F 44.45 °F 29.64 in Calm   2 mph 95% 0 in
00:45 46.1 °F 44.75 °F 29.63 in Calm   6 mph 95% 0 in
00:50 46.4 °F 44.77 °F 29.64 in East 1 mph 6 mph 94% 0 in
00:55 47 °F 45.09 °F 29.64 in SW 1 mph 7 mph 93% 0 in
01:00 47.6 °F 45.4 °F 29.63 in Calm   8 mph 92% 0 in
01:05 47.8 °F 45.59 °F 29.63 in SE 1 mph 2 mph 92% 0 in
01:10 47.8 °F 45.59 °F 29.62 in SSE 1 mph 4 mph 92% 0 in
01:15 48 °F 45.5 °F 29.62 in Calm   7 mph 91% 0 in
01:20 48.2 °F 45.41 °F 29.60 in Calm   6 mph 90% 0 in
01:25 48.5 °F 45.71 °F 29.61 in Calm   6 mph 90% 0 in
01:30 48.5 °F 45.41 °F 29.61 in Calm   5 mph 89% 0 in
01:35 48.8 °F 45.71 °F 29.61 in SE 2 mph 6 mph 89% 0 in
01:40 49 °F 45.61 °F 29.61 in Calm   7 mph 88% 0 in
01:45 49.1 °F 45.71 °F 29.61 in Calm   7 mph 88% 0 in
01:50 49.2 °F 45.8 °F 29.62 in Calm   6 mph 88% 0 in
01:55 49.3 °F 45.9 °F 29.62 in Calm   5 mph 88% 0 in
02:00 49.3 °F 45.9 °F 29.63 in Calm   2 mph 88% 0 in
02:05 49.2 °F 45.8 °F 29.63 in SE 1 mph 2 mph 88% 0 in
02:10 49.2 °F 46.1 °F 29.63 in Calm   2 mph 89% 0 in
02:15 49.1 °F 46.3 °F 29.63 in Calm   1 mph 90% 0.01 in
02:20 48.9 °F 46.1 °F 29.63 in Calm   1 mph 90% 0.01 in
02:25 48.7 °F 46.2 °F 29.63 in Calm   1 mph 91% 0.01 in
02:30 48.6 °F 46.39 °F 29.64 in Calm   1 mph 92% 0.01 in
02:35 48.4 °F 46.19 °F 29.64 in Calm     92% 0.02 in
02:40 48.2 °F 46.28 °F 29.64 in Calm   1 mph 93% 0.02 in
02:45 48.1 °F 46.18 °F 29.64 in Calm   1 mph 93% 0.03 in
02:50 47.9 °F 45.98 °F 29.64 in Calm   2 mph 93% 0.04 in
02:55 47.9 °F 46.26 °F 29.64 in Calm     94% 0.05 in
03:00 47.7 °F 46.06 °F 29.63 in SE 1 mph 2 mph 94% 0.06 in
03:05 47.6 °F 45.96 °F 29.62 in Calm   4 mph 94% 0.06 in
03:10 47.5 °F 45.86 °F 29.61 in Calm   5 mph 94% 0.06 in
03:15 47.5 °F 45.86 °F 29.59 in Calm   4 mph 94% 0.06 in
03:20 47.5 °F 45.86 °F 29.59 in Calm   4 mph 94% 0.06 in
03:25 47.5 °F 45.86 °F 29.59 in SSE 1 mph 4 mph 94% 0.06 in
03:30 47.5 °F 45.86 °F 29.60 in Calm   5 mph 94% 0.06 in
03:35 47.6 °F 45.96 °F 29.60 in Calm   5 mph 94% 0.06 in
03:40 47.6 °F 45.96 °F 29.60 in SSE 5 mph 5 mph 94% 0.05 in
03:45 47.5 °F 45.86 °F 29.60 in Calm   5 mph 94% 0.05 in
03:50 47.7 °F 46.06 °F 29.60 in Calm   8 mph 94% 0.04 in
03:55 47.7 °F 46.06 °F 29.59 in Calm   2 mph 94% 0.03 in
04:00 47.7 °F 46.06 °F 29.58 in Calm     94% 0.03 in
04:05 47.6 °F 45.96 °F 29.58 in Calm     94% 0.03 in
04:10 47.5 °F 46.14 °F 29.58 in Calm   4 mph 95% 0.03 in
04:15 47.5 °F 46.14 °F 29.58 in Calm     95% 0.04 in
04:20 47.4 °F 46.04 °F 29.59 in Calm     95% 0.04 in
04:25 47.4 °F 46.04 °F 29.59 in Calm   1 mph 95% 0.03 in
04:30 47.3 °F 45.94 °F 29.58 in Calm   1 mph 95% 0.04 in
04:35 47.3 °F 45.94 °F 29.59 in Calm   2 mph 95% 0.06 in
04:40 47.2 °F 45.84 °F 29.59 in Calm     95% 0.07 in
04:45 47.2 °F 45.84 °F 29.59 in Calm     95% 0.07 in
04:50 47.1 °F 45.74 °F 29.59 in South 1 mph 2 mph 95% 0.09 in
04:55 47.1 °F 45.74 °F 29.58 in Calm   2 mph 95% 0.1 in
05:00 47 °F 45.65 °F 29.58 in Calm     95% 0.1 in
05:05 47 °F 45.65 °F 29.59 in Calm     95% 0.1 in
05:10 46.9 °F 45.55 °F 29.59 in Calm   1 mph 95% 0.09 in
05:15 46.9 °F 45.55 °F 29.59 in Calm   1 mph 95% 0.1 in
05:20 46.8 °F 45.17 °F 29.59 in Calm     94% 0.1 in
05:25 46.8 °F 45.17 °F 29.59 in Calm   2 mph 94% 0.12 in
05:30 46.8 °F 45.17 °F 29.59 in Calm   1 mph 94% 0.13 in
05:35 46.7 °F 45.07 °F 29.59 in SE 1 mph 2 mph 94% 0.12 in
05:40 46.7 °F 45.07 °F 29.58 in Calm   1 mph 94% 0.11 in
05:45 46.7 °F 45.07 °F 29.59 in Calm   2 mph 94% 0.1 in
05:50 46.5 °F 45.15 °F 29.58 in Calm   4 mph 95% 0.1 in
05:55 46.4 °F 45.05 °F 29.58 in Calm   5 mph 95% 0.08 in
06:00 46.3 °F 44.95 °F 29.59 in SSE 1 mph 5 mph 95% 0.08 in
06:05 46.3 °F 44.67 °F 29.60 in Calm   4 mph 94% 0.08 in
06:10 46.3 °F 44.67 °F 29.61 in Calm   2 mph 94% 0.09 in
06:15 46.5 °F 44.87 °F 29.61 in SSE 1 mph 11 mph 94% 0.1 in
06:20 46.7 °F 45.07 °F 29.61 in Calm   2 mph 94% 0.1 in
06:25 46.8 °F 45.17 °F 29.60 in Calm   2 mph 94% 0.1 in
06:30 46.9 °F 45.27 °F 29.60 in Calm   5 mph 94% 0.09 in
06:35 47 °F 45.37 °F 29.58 in SE 1 mph 5 mph 94% 0.08 in
06:40 47 °F 45.37 °F 29.58 in Calm   2 mph 94% 0.09 in
06:45 47 °F 45.37 °F 29.58 in Calm   6 mph 94% 0.08 in
06:50 47 °F 45.37 °F 29.58 in Calm   1 mph 94% 0.08 in
06:55 46.9 °F 45.27 °F 29.59 in Calm   1 mph 94% 0.08 in
07:00 46.8 °F 45.45 °F 29.59 in SE 1 mph 2 mph 95% 0.08 in
07:05 46.6 °F 45.25 °F 29.58 in Calm   5 mph 95% 0.07 in
07:10 46.5 °F 45.15 °F 29.57 in Calm   4 mph 95% 0.07 in
07:15 46.5 °F 45.15 °F 29.58 in Calm   3 mph 95% 0.05 in
07:20 46.4 °F 44.77 °F 29.57 in Calm   1 mph 94% 0.04 in
07:25 46.4 °F 44.77 °F 29.58 in Calm   2 mph 94% 0.03 in
07:30 46.5 °F 44.87 °F 29.60 in Calm   1 mph 94% 0.02 in
07:35 46.5 °F 44.87 °F 29.61 in Calm     94% 0.01 in
07:40 46.5 °F 44.87 °F 29.61 in Calm     94% 0.01 in
07:45 46.5 °F 44.87 °F 29.61 in Calm   1 mph 94% 0 in
07:50 46.5 °F 44.87 °F 29.61 in Calm   2 mph 94% 0 in
07:55 46.6 °F 44.97 °F 29.61 in Calm   1 mph 94% 0 in
08:00 46.9 °F 44.99 °F 29.62 in SSE 1 mph 2 mph 93% 0 in
08:05 47.3 °F 45.38 °F 29.62 in ESE 1 mph 4 mph 93% 0 in
08:10 47.4 °F 45.48 °F 29.61 in Calm   1 mph 93% 0 in
08:15 47.6 °F 45.96 °F 29.62 in SSE 1 mph 1 mph 94% 0 in
08:20 47.7 °F 46.06 °F 29.61 in SE 1 mph 5 mph 94% 0.01 in
08:25 47.8 °F 46.16 °F 29.61 in Calm   6 mph 94% 0.01 in
08:30 47.9 °F 46.26 °F 29.61 in Calm   6 mph 94% 0.01 in
08:35 48 °F 46.64 °F 29.61 in Calm   4 mph 95% 0.01 in
08:40 48 °F 46.64 °F 29.62 in Calm   1 mph 95% 0.01 in
08:45 48 °F 46.64 °F 29.61 in Calm   1 mph 95% 0.01 in
08:50 48 °F 46.64 °F 29.62 in Calm   2 mph 95% 0.01 in
08:55 48 °F 46.64 °F 29.62 in Calm   4 mph 95% 0.01 in
09:00 48 °F 46.64 °F 29.62 in SE 1 mph 5 mph 95% 0.01 in
09:05 48.1 °F 46.74 °F 29.63 in Calm   2 mph 95% 0.01 in
09:10 48.1 °F 46.74 °F 29.63 in Calm   1 mph 95% 0.01 in
09:15 48.2 °F 46.84 °F 29.64 in Calm   6 mph 95% 0.01 in
09:20 48.2 °F 46.84 °F 29.64 in SSE 1 mph 2 mph 95% 0.01 in
09:25 48.3 °F 46.94 °F 29.64 in Calm   12 mph 95% 0 in
09:30 48.3 °F 46.94 °F 29.65 in Calm   2 mph 95% 0 in
09:35 48.3 °F 46.94 °F 29.65 in Calm   7 mph 95% 0 in
09:40 48.3 °F 46.94 °F 29.65 in Calm   2 mph 95% 0 in
09:45 48.3 °F 46.94 °F 29.65 in Calm   1 mph 95% 0 in
09:46 48.3 °F 46.94 °F 29.65 in Calm     95% 0 in
09:50 48.2 °F 46.56 °F 29.66 in Calm   4 mph 94% 0 in
10:00 48.1 °F 46.46 °F 29.66 in Calm   2 mph 94% 0 in
10:05 48 °F 46.08 °F 29.66 in Calm   3 mph 93% 0 in
10:10 48 °F 46.36 °F 29.66 in Calm   2 mph 94% 0 in
10:15 48 °F 46.08 °F 29.66 in Calm   3 mph 93% 0 in
10:20 48.1 °F 46.18 °F 29.67 in Calm   4 mph 93% 0 in
10:25 48.2 °F 46.28 °F 29.67 in East 1 mph 1 mph 93% 0 in
10:30 48.3 °F 46.09 °F 29.68 in SE 1 mph 5 mph 92% 0 in
10:35 48.5 °F 46.29 °F 29.69 in Calm   3 mph 92% 0 in
10:40 48.5 °F 46.29 °F 29.69 in East 1 mph 7 mph 92% 0 in
10:45 48.6 °F 46.39 °F 29.69 in SSW 1 mph 6 mph 92% 0 in
10:50 48.6 °F 46.39 °F 29.69 in WSW 1 mph 3 mph 92% 0 in
10:55 48.6 °F 46.1 °F 29.69 in Calm   2 mph 91% 0 in
11:00 48.7 °F 46.48 °F 29.70 in Calm   4 mph 92% 0 in
11:05 48.7 °F 46.2 °F 29.70 in Calm   2 mph 91% 0 in
11:10 48.7 °F 46.2 °F 29.71 in ESE 1 mph 4 mph 91% 0 in
11:15 48.8 °F 46.29 °F 29.71 in SSE 1 mph 9 mph 91% 0 in
11:20 48.9 °F 46.39 °F 29.71 in Calm   3 mph 91% 0 in
11:25 49 °F 46.2 °F 29.72 in ESE 1 mph 6 mph 90% 0 in
11:30 49.2 °F 46.4 °F 29.71 in Calm   4 mph 90% 0 in
11:35 49.4 °F 46.3 °F 29.72 in Calm   4 mph 89% 0 in
11:40 49.7 °F 47.18 °F 29.72 in Calm   2 mph 91% 0 in
11:45 49.8 °F 46.99 °F 29.73 in ESE 1 mph 1 mph 90% 0 in
11:50 49.7 °F 46.89 °F 29.72 in West 1 mph 1 mph 90% 0 in
11:55 49.6 °F 46.79 °F 29.73 in Calm   1 mph 90% 0 in
12:00 49.5 °F 46.69 °F 29.73 in Calm   4 mph 90% 0 in
12:05 49.3 °F 46.5 °F 29.73 in Calm   1 mph 90% 0 in
12:10 49.2 °F 46.4 °F 29.74 in Calm   2 mph 90% 0 in
12:15 49.2 °F 46.4 °F 29.74 in SE 1 mph 4 mph 90% 0 in
12:20 49.3 °F 46.5 °F 29.74 in SE 1 mph 2 mph 90% 0 in
12:25 49.4 °F 46.3 °F 29.74 in ESE 1 mph 2 mph 89% 0 in
12:30 49.5 °F 46.4 °F 29.74 in Calm   3 mph 89% 0 in
12:35 49.6 °F 46.5 °F 29.74 in South 1 mph 2 mph 89% 0 in
12:40 49.6 °F 46.5 °F 29.74 in Calm   2 mph 89% 0 in
12:45 49.6 °F 46.79 °F 29.74 in Calm   2 mph 90% 0 in
12:50 49.7 °F 46.6 °F 29.74 in South 1 mph 7 mph 89% 0 in
12:55 49.8 °F 46.4 °F 29.75 in Calm   2 mph 88% 0 in
13:00 49.9 °F 46.49 °F 29.75 in Calm   3 mph 88% 0 in
13:05 49.9 °F 46.79 °F 29.75 in Calm   4 mph 89% 0 in
13:10 50 °F 46.59 °F 29.75 in Calm   2 mph 88% 0 in
13:15 50.1 °F 46.69 °F 29.75 in Calm   2 mph 88% 0 in
13:20 50.1 °F 46.99 °F 29.76 in Calm   1 mph 89% 0 in
13:25 50.1 °F 46.99 °F 29.76 in Calm   2 mph 89% 0 in
13:30 50 °F 46.89 °F 29.76 in NNW 1 mph 1 mph 89% 0 in
13:35 49.9 °F 47.09 °F 29.76 in Calm   1 mph 90% 0 in
13:40 49.6 °F 46.79 °F 29.76 in Calm   2 mph 90% 0 in
13:45 49.4 °F 46.89 °F 29.77 in Calm   1 mph 91% 0.01 in
13:50 49.3 °F 46.79 °F 29.77 in Calm   2 mph 91% 0.01 in
13:55 49.1 °F 46.88 °F 29.76 in Calm   7 mph 92% 0.01 in
14:00 48.6 °F 46.39 °F 29.77 in Calm   4 mph 92% 0.02 in
14:05 48.2 °F 46.28 °F 29.78 in Calm   1 mph 93% 0.03 in
14:10 47.9 °F 45.98 °F 29.78 in SW 1 mph 2 mph 93% 0.04 in
14:15 47.6 °F 45.96 °F 29.78 in Calm   2 mph 94% 0.06 in
14:20 47.4 °F 45.76 °F 29.77 in Calm   4 mph 94% 0.1 in
14:25 47.1 °F 45.47 °F 29.76 in Calm   4 mph 94% 0.11 in
14:30 46.9 °F 45.27 °F 29.78 in Calm   1 mph 94% 0.12 in
14:35 46.9 °F 45.55 °F 29.78 in Calm     95% 0.12 in
14:40 46.9 °F 45.55 °F 29.78 in Calm   1 mph 95% 0.12 in
14:45 46.9 °F 45.55 °F 29.77 in SE 1 mph 5 mph 95% 0.12 in
14:50 46.9 °F 45.55 °F 29.78 in Calm   2 mph 95% 0.11 in
14:55 47 °F 45.65 °F 29.78 in South 4 mph 5 mph 95% 0.11 in
15:00 47.1 °F 45.74 °F 29.79 in Calm   4 mph 95% 0.12 in
15:05 47.1 °F 45.74 °F 29.79 in Calm     95% 0.11 in
15:10 47.1 °F 45.74 °F 29.80 in North 1 mph 1 mph 95% 0.1 in
15:15 47.2 °F 45.57 °F 29.80 in Calm   1 mph 94% 0.09 in
15:20 47.2 °F 45.57 °F 29.80 in Calm   2 mph 94% 0.07 in
15:25 47.2 °F 45.57 °F 29.80 in Calm   1 mph 94% 0.03 in
15:30 47.2 °F 45.84 °F 29.81 in Calm   3 mph 95% 0.02 in
15:35 47.2 °F 45.84 °F 29.80 in Calm   1 mph 95% 0.01 in
15:40 47.2 °F 45.84 °F 29.81 in Calm   2 mph 95% 0.01 in
15:45 47.2 °F 45.84 °F 29.81 in Calm   1 mph 95% 0.01 in
15:50 47.1 °F 45.74 °F 29.81 in Calm   2 mph 95% 0.01 in
15:55 47.1 °F 45.74 °F 29.82 in Calm   1 mph 95% 0.01 in
16:00 47 °F 45.37 °F 29.82 in Calm   6 mph 94% 0.01 in
16:05 47.1 °F 45.47 °F 29.82 in Calm   4 mph 94% 0 in
16:10 47 °F 45.37 °F 29.82 in Calm   5 mph 94% 0 in
16:15 47 °F 45.37 °F 29.82 in Calm   2 mph 94% 0 in
16:20 46.9 °F 45.27 °F 29.82 in SSE 1 mph 5 mph 94% 0.01 in
16:25 46.8 °F 45.17 °F 29.82 in SE 1 mph 5 mph 94% 0.01 in
16:30 46.7 °F 45.35 °F 29.82 in Calm   5 mph 95% 0.03 in
16:35 46.7 °F 45.35 °F 29.82 in SE 1 mph 5 mph 95% 0.03 in
16:40 46.7 °F 45.35 °F 29.83 in Calm   4 mph 95% 0.03 in
16:45 46.7 °F 45.35 °F 29.83 in Calm   2 mph 95% 0.04 in
16:50 46.6 °F 45.25 °F 29.84 in Calm   1 mph 95% 0.04 in
16:55 46.6 °F 45.25 °F 29.84 in SE 2 mph 5 mph 95% 0.04 in
17:00 46.5 °F 45.15 °F 29.84 in Calm   6 mph 95% 0.04 in
17:05 46.5 °F 45.15 °F 29.84 in Calm   2 mph 95% 0.04 in
17:10 46.5 °F 45.15 °F 29.84 in Calm     95% 0.04 in
17:15 46.4 °F 45.05 °F 29.84 in Calm     95% 0.04 in
17:20 46.3 °F 44.95 °F 29.84 in Calm     95% 0.04 in
17:25 46.2 °F 44.85 °F 29.85 in Calm     95% 0.03 in
17:30 46.1 °F 44.75 °F 29.85 in Calm   2 mph 95% 0.03 in
17:35 46 °F 44.65 °F 29.86 in Calm     95% 0.01 in
17:40 46 °F 44.65 °F 29.86 in Calm   1 mph 95% 0.04 in
17:45 46 °F 44.65 °F 29.87 in Calm   4 mph 95% 0.07 in
17:50 45.9 °F 44.55 °F 29.87 in Calm   2 mph 95% 0.08 in
17:55 45.8 °F 44.45 °F 29.87 in Calm     95% 0.09 in
18:00 45.7 °F 44.35 °F 29.86 in Calm   2 mph 95% 0.12 in
18:05 45.7 °F 44.35 °F 29.86 in NW 1 mph 3 mph 95% 0.13 in
18:10 45.6 °F 44.25 °F 29.86 in Calm   2 mph 95% 0.13 in
18:15 45.4 °F 44.05 °F 29.86 in Calm   2 mph 95% 0.13 in
18:20 45.2 °F 43.86 °F 29.87 in SSE 2 mph 2 mph 95% 0.13 in
18:25 45.2 °F 43.86 °F 29.87 in Calm   2 mph 95% 0.13 in
18:30 45.2 °F 43.86 °F 29.87 in Calm   6 mph 95% 0.13 in
18:35 45.2 °F 43.86 °F 29.87 in SSW 1 mph 8 mph 95% 0.13 in
18:40 45.2 °F 43.86 °F 29.87 in Calm   3 mph 95% 0.13 in
18:45 45.2 °F 43.86 °F 29.88 in Calm   3 mph 95% 0.11 in
18:50 45.2 °F 43.86 °F 29.88 in Calm   2 mph 95% 0.08 in
18:55 45.2 °F 43.86 °F 29.88 in Calm   5 mph 95% 0.06 in
19:00 45.1 °F 43.76 °F 29.89 in Calm   1 mph 95% 0.05 in
19:05 45 °F 43.66 °F 29.89 in Calm   2 mph 95% 0.02 in
19:10 44.8 °F 43.46 °F 29.90 in Calm   1 mph 95% 0.01 in
19:15 44.7 °F 43.36 °F 29.90 in Calm   2 mph 95% 0.01 in
19:20 44.6 °F 43.26 °F 29.91 in ESE 1 mph 2 mph 95% 0.01 in
19:25 44.4 °F 43.06 °F 29.91 in Calm   1 mph 95% 0.01 in
19:30 44.3 °F 42.96 °F 29.90 in SE 1 mph 4 mph 95% 0.01 in
19:35 44.3 °F 42.96 °F 29.91 in SSE 1 mph 4 mph 95% 0.01 in
19:40 44.2 °F 42.86 °F 29.92 in Calm   1 mph 95% 0.01 in
19:45 44.2 °F 42.86 °F 29.92 in Calm   3 mph 95% 0.01 in
19:50 44.1 °F 42.76 °F 29.92 in Calm     95% 0 in
19:55 44.1 °F 42.76 °F 29.93 in Calm     95% 0 in
20:00 44.1 °F 42.76 °F 29.93 in Calm     95% 0 in
20:05 44.1 °F 42.76 °F 29.93 in Calm   4 mph 95% 0 in
20:10 44.1 °F 42.76 °F 29.94 in Calm   1 mph 95% 0 in
20:15 44.1 °F 42.76 °F 29.94 in Calm   1 mph 95% 0 in
20:20 44.1 °F 42.76 °F 29.94 in Calm   2 mph 95% 0 in
20:25 44.1 °F 42.76 °F 29.95 in Calm     95% 0 in
20:30 44.1 °F 42.76 °F 29.96 in Calm     95% 0 in
20:35 44.2 °F 42.59 °F 29.96 in Calm     94% 0 in
20:40 44.2 °F 42.59 °F 29.97 in Calm     94% 0 in
20:45 44.2 °F 42.59 °F 29.98 in Calm   4 mph 94% 0 in
20:50 44.3 °F 42.69 °F 29.98 in Calm     94% 0 in
20:55 44.3 °F 42.69 °F 29.98 in Calm     94% 0 in
21:00 44.4 °F 42.79 °F 29.99 in Calm     94% 0 in
Woodinville, Washington USA
Compliments of Weather Underground - 4 mb